createdAt,value
2022-10-22T00:02:21.159Z,24.10
2022-10-22T00:07:24.034Z,23.10
2022-10-22T00:12:26.965Z,26.80
2022-10-22T00:17:29.688Z,34.30
2022-10-22T00:22:32.321Z,24.30
2022-10-22T00:27:34.994Z,22.60
2022-10-22T00:32:37.775Z,22.10
2022-10-22T00:37:40.763Z,26.70
2022-10-22T00:42:43.784Z,22.80
2022-10-22T00:47:46.679Z,23.70
2022-10-22T00:52:50.578Z,27.30
2022-10-22T00:57:56.100Z,24.20
2022-10-22T01:02:59.547Z,25.60
2022-10-22T01:08:02.446Z,25.40
2022-10-22T01:13:33.375Z,26.20
2022-10-22T01:18:59.704Z,27.80
2022-10-22T01:24:11.684Z,27.80
2022-10-22T01:29:18.708Z,30.80
2022-10-22T01:34:24.213Z,24.50
2022-10-22T01:39:29.646Z,33.60
2022-10-22T01:50:14.231Z,29.20
2022-10-22T01:55:54.659Z,34.20
2022-10-22T02:01:07.957Z,29.40
2022-10-22T02:06:17.516Z,26.30
2022-10-22T02:11:20.564Z,26.40
2022-10-22T02:16:28.885Z,24.30
2022-10-22T02:21:32.060Z,26.90
2022-10-22T02:26:45.202Z,25.30
2022-10-22T02:31:50.089Z,23.60
2022-10-22T02:36:54.798Z,28.70
2022-10-22T02:41:58.205Z,31.40
2022-10-22T02:47:01.235Z,26.20
2022-10-22T02:52:04.384Z,26.70
2022-10-22T02:57:07.394Z,29.00
2022-10-22T03:02:10.208Z,27.60
2022-10-22T03:07:12.866Z,23.90
2022-10-22T03:12:15.553Z,28.90
2022-10-22T03:17:18.275Z,29.40
2022-10-22T03:22:26.724Z,27.00
2022-10-22T03:27:30.412Z,28.80
2022-10-22T03:32:33.193Z,29.80
2022-10-22T03:37:36.909Z,28.90
2022-10-22T03:42:41.716Z,30.90
2022-10-22T03:47:44.442Z,28.20
2022-10-22T03:52:47.151Z,29.80
2022-10-22T03:57:50.130Z,30.30
2022-10-22T04:02:52.808Z,33.10
2022-10-22T04:07:55.500Z,30.50
2022-10-22T04:12:58.178Z,37.60
2022-10-22T04:18:00.837Z,30.50
2022-10-22T04:23:03.526Z,30.60
2022-10-22T04:28:08.334Z,32.10
2022-10-22T04:33:11.049Z,31.50
2022-10-22T04:38:13.804Z,29.90
2022-10-22T04:43:16.491Z,28.90
2022-10-22T04:48:19.112Z,30.10
2022-10-22T04:53:21.788Z,32.50
2022-10-22T04:58:24.492Z,29.10
2022-10-22T05:03:28.368Z,30.50
2022-10-22T05:08:31.029Z,32.20
2022-10-22T05:13:33.707Z,30.20
2022-10-22T05:18:41.784Z,33.10
2022-10-22T05:23:46.112Z,34.20
2022-10-22T05:28:49.857Z,32.50
2022-10-22T05:33:52.488Z,34.30
2022-10-22T05:38:55.306Z,33.40
2022-10-22T05:43:59.632Z,32.10
2022-10-22T05:49:05.239Z,33.70
2022-10-22T05:54:08.984Z,33.80
2022-10-22T05:59:11.991Z,34.80
2022-10-22T06:04:16.298Z,37.60
2022-10-22T06:09:30.611Z,37.10
2022-10-22T06:14:34.012Z,35.80
2022-10-22T06:19:36.817Z,36.40
2022-10-22T06:24:41.658Z,35.60
2022-10-22T06:29:48.578Z,35.00
2022-10-22T06:34:52.106Z,36.70
2022-10-22T06:39:54.778Z,41.40
2022-10-22T06:44:57.499Z,35.60
2022-10-22T06:50:00.326Z,38.40
2022-10-22T06:55:03.138Z,30.90
2022-10-22T07:00:07.631Z,33.60
2022-10-22T07:05:10.421Z,32.30
2022-10-22T07:10:13.514Z,40.80
2022-10-22T07:15:16.355Z,41.00
2022-10-22T07:20:19.156Z,36.80
2022-10-22T07:25:21.848Z,38.70
2022-10-22T07:30:24.612Z,28.20
2022-10-22T07:35:27.567Z,27.10
2022-10-22T07:40:30.706Z,23.50
2022-10-22T07:45:33.985Z,19.40
2022-10-22T07:50:36.802Z,18.80
2022-10-22T07:55:39.542Z,14.40
2022-10-22T08:00:42.229Z,14.10
2022-10-22T08:05:45.537Z,21.70
2022-10-22T08:10:51.060Z,13.10
2022-10-22T08:15:57.266Z,15.30
2022-10-22T08:26:03.578Z,13.30
2022-10-22T08:31:08.973Z,13.20
2022-10-22T08:36:12.076Z,13.00
2022-10-22T08:41:22.204Z,13.00
2022-10-22T08:46:40.167Z,13.70
2022-10-22T08:51:43.229Z,15.10
2022-10-22T08:57:11.390Z,12.90
2022-10-22T09:02:26.356Z,12.80
2022-10-22T09:07:29.158Z,11.30
2022-10-22T09:12:31.974Z,12.60
2022-10-22T09:17:59.377Z,12.60
2022-10-22T09:23:29.200Z,11.90
2022-10-22T09:28:32.177Z,12.50
2022-10-22T09:33:35.004Z,12.50
2022-10-22T09:38:46.515Z,13.70
2022-10-22T09:43:49.888Z,12.50
2022-10-22T09:48:55.646Z,12.70
2022-10-22T09:54:02.046Z,15.60
2022-10-22T09:59:04.928Z,13.20
2022-10-22T10:04:13.382Z,13.10
2022-10-22T10:09:19.569Z,13.10
2022-10-22T10:14:54.652Z,15.20
2022-10-22T10:20:21.435Z,16.30
2022-10-22T10:25:32.128Z,15.80
2022-10-22T10:30:44.343Z,18.30
2022-10-22T10:36:29.005Z,17.20
2022-10-22T10:41:47.112Z,19.30
2022-10-22T10:47:05.665Z,19.30
2022-10-22T10:52:18.826Z,17.60
2022-10-22T10:57:48.164Z,20.30
2022-10-22T11:03:09.872Z,21.90
2022-10-22T11:08:21.596Z,20.70
2022-10-22T11:13:31.956Z,24.10
2022-10-22T11:18:40.705Z,23.60
2022-10-22T11:24:05.285Z,22.60
2022-10-22T11:29:27.265Z,20.70
2022-10-22T11:34:44.073Z,24.20
2022-10-22T11:39:59.855Z,20.30
2022-10-22T11:45:23.550Z,23.50
2022-10-22T11:50:47.107Z,22.00
2022-10-22T11:55:53.086Z,29.80
2022-10-22T12:01:23.897Z,32.20
2022-10-22T12:06:28.140Z,25.60
2022-10-22T12:11:39.768Z,24.90
2022-10-22T12:17:02.228Z,30.30
2022-10-22T12:22:13.576Z,29.60
2022-10-22T12:27:22.522Z,31.80
2022-10-22T12:32:42.965Z,30.10
2022-10-22T12:37:50.176Z,30.20
2022-10-22T12:42:56.125Z,32.80
2022-10-22T12:48:08.356Z,25.30
2022-10-22T12:53:21.946Z,35.20
2022-10-22T12:58:29.675Z,31.60
2022-10-22T13:03:50.138Z,44.90
2022-10-22T13:09:00.637Z,47.70
2022-10-22T13:14:38.833Z,37.80
2022-10-22T13:20:05.425Z,50.10
2022-10-22T13:25:20.139Z,55.50
2022-10-22T13:30:27.544Z,56.10
2022-10-22T13:35:36.027Z,59.90
2022-10-22T13:40:39.342Z,55.00
2022-10-22T13:45:44.681Z,38.80
2022-10-22T13:50:48.711Z,41.70
2022-10-22T13:55:51.590Z,40.30
2022-10-22T14:00:58.056Z,47.40
2022-10-22T14:06:01.233Z,45.30
2022-10-22T14:11:04.084Z,59.70
2022-10-22T14:16:09.172Z,72.80
2022-10-22T14:21:14.080Z,68.40
2022-10-22T14:26:28.275Z,60.00
2022-10-22T14:31:32.044Z,50.90
2022-10-22T14:36:34.785Z,59.30
2022-10-22T14:41:38.288Z,60.90
2022-10-22T14:46:42.789Z,52.90
2022-10-22T14:51:46.993Z,44.30
2022-10-22T14:56:49.686Z,61.20
2022-10-22T15:01:52.423Z,52.60
2022-10-22T15:06:56.617Z,45.90
2022-10-22T15:11:59.944Z,55.20
2022-10-22T15:17:02.761Z,51.20
2022-10-22T15:22:05.979Z,40.80
2022-10-22T15:27:09.030Z,55.20
2022-10-22T15:32:11.766Z,53.40
2022-10-22T15:37:15.677Z,51.60
2022-10-22T15:42:19.049Z,66.10
2022-10-22T15:47:22.775Z,71.90
2022-10-22T15:52:25.494Z,67.60
2022-10-22T15:57:28.281Z,65.40
2022-10-22T16:02:30.948Z,50.50
2022-10-22T16:07:33.637Z,53.20
2022-10-22T16:12:36.386Z,47.80
2022-10-22T16:17:39.193Z,49.20
2022-10-22T16:22:42.257Z,43.80
2022-10-22T16:27:51.160Z,41.60
2022-10-22T16:32:54.648Z,39.50
2022-10-22T16:37:57.751Z,43.00
2022-10-22T16:43:00.471Z,40.20
2022-10-22T16:48:03.398Z,30.10
2022-10-22T16:53:06.127Z,38.60
2022-10-22T16:58:08.834Z,41.30
2022-10-22T17:03:12.175Z,39.80
2022-10-22T17:08:14.907Z,41.30
2022-10-22T17:13:17.692Z,36.70
2022-10-22T17:18:20.392Z,39.40
2022-10-22T17:23:23.116Z,34.20
2022-10-22T17:28:26.683Z,33.50
2022-10-22T17:33:29.579Z,38.30
2022-10-22T17:38:32.783Z,30.90
2022-10-22T17:43:36.670Z,32.00
2022-10-22T17:48:39.512Z,31.20
2022-10-22T17:53:47.194Z,24.70
2022-10-22T17:58:50.978Z,27.90
2022-10-22T18:03:55.562Z,26.20
2022-10-22T18:08:58.748Z,21.30
2022-10-22T18:14:01.991Z,28.60
2022-10-22T18:19:05.453Z,29.80
2022-10-22T18:24:09.603Z,22.40
2022-10-22T18:29:16.137Z,23.80
2022-10-22T18:34:21.685Z,25.90
2022-10-22T18:39:26.783Z,24.10
2022-10-22T18:44:29.453Z,22.60
2022-10-22T18:49:32.135Z,23.00
2022-10-22T18:54:35.174Z,21.00
2022-10-22T18:59:38.344Z,19.80
2022-10-22T19:04:42.381Z,16.30
2022-10-22T19:09:45.128Z,17.60
2022-10-22T19:14:49.397Z,19.50
2022-10-22T19:19:52.594Z,17.70
2022-10-22T19:24:55.548Z,19.00
2022-10-22T19:29:58.316Z,17.70
2022-10-22T19:35:01.074Z,17.90
2022-10-22T19:40:07.353Z,23.40
2022-10-22T19:45:10.367Z,20.00
2022-10-22T19:50:13.470Z,22.80
2022-10-22T19:55:16.239Z,26.30
2022-10-22T20:00:18.971Z,31.80
2022-10-22T20:10:30.604Z,30.40
2022-10-22T20:15:34.752Z,35.30
2022-10-22T20:20:39.060Z,33.30
2022-10-22T20:25:44.181Z,34.50
2022-10-22T20:30:47.224Z,35.00
2022-10-22T20:36:05.719Z,34.70
2022-10-22T20:41:11.790Z,43.80
2022-10-22T20:46:20.629Z,40.40
2022-10-22T20:51:24.958Z,34.40
2022-10-22T20:56:28.595Z,34.80
2022-10-22T21:01:33.998Z,37.20
2022-10-22T21:06:41.812Z,38.20
2022-10-22T21:11:44.716Z,32.10
2022-10-22T21:16:50.704Z,38.70
2022-10-22T21:21:53.710Z,39.70
2022-10-22T21:26:56.594Z,31.20
2022-10-22T21:31:59.421Z,35.10
2022-10-22T21:37:02.108Z,34.00
2022-10-22T21:42:04.960Z,32.80
2022-10-22T21:47:07.671Z,34.20
2022-10-22T21:52:10.483Z,30.90
2022-10-22T21:57:13.336Z,33.60
2022-10-22T22:02:16.146Z,31.00
2022-10-22T22:07:18.880Z,32.90
2022-10-22T22:12:21.620Z,28.80
2022-10-22T22:17:24.299Z,34.20
2022-10-22T22:22:27.969Z,32.00
2022-10-22T22:27:30.677Z,30.20
2022-10-22T22:32:33.436Z,29.10
2022-10-22T22:37:36.133Z,29.70
2022-10-22T22:42:38.855Z,30.60
2022-10-22T22:47:41.775Z,28.70
2022-10-22T22:52:44.736Z,31.70
2022-10-22T22:57:47.518Z,31.30
2022-10-22T23:02:54.675Z,27.70
2022-10-22T23:07:57.458Z,28.20
2022-10-22T23:13:00.206Z,28.80
2022-10-22T23:18:02.949Z,26.50
2022-10-22T23:23:08.612Z,24.60
2022-10-22T23:28:11.321Z,24.60
2022-10-22T23:33:15.112Z,22.50
2022-10-22T23:38:17.847Z,25.20
2022-10-22T23:43:20.900Z,25.60
2022-10-22T23:48:24.247Z,25.40
2022-10-22T23:53:27.059Z,24.10
2022-10-22T23:58:29.783Z,22.70
